createdAt,value
2019-04-25T00:01:49.788Z,99999.64
2019-04-25T00:06:45.028Z,99981.05
2019-04-25T00:11:39.305Z,99967.41
2019-04-25T00:16:35.060Z,99966.11
2019-04-25T00:21:38.238Z,99982.25
2019-04-25T00:26:37.917Z,99967.34
2019-04-25T00:31:32.297Z,99965.13
2019-04-25T00:36:26.215Z,99974.42
2019-04-25T00:41:21.320Z,99970.47
2019-04-25T00:46:15.496Z,99982.84
2019-04-25T00:51:09.201Z,99986.23
2019-04-25T00:56:03.082Z,99987.50
2019-04-25T01:01:25.363Z,100003.37
2019-04-25T01:06:19.523Z,100003.13
2019-04-25T01:11:13.455Z,100012.72
2019-04-25T01:16:08.067Z,100023.78
2019-04-25T01:21:02.113Z,100018.85
2019-04-25T01:25:56.171Z,100045.80
2019-04-25T01:30:49.966Z,100041.31
2019-04-25T01:35:58.771Z,100034.09
2019-04-25T01:41:03.429Z,100032.11
2019-04-25T01:45:57.962Z,100023.05
2019-04-25T01:50:53.909Z,100021.28
2019-04-25T01:55:56.001Z,100027.52
2019-04-25T02:00:46.649Z,100021.55
2019-04-25T02:05:40.580Z,100025.56
2019-04-25T02:10:34.654Z,100044.23
2019-04-25T02:15:31.189Z,100044.50
2019-04-25T02:20:25.633Z,100040.34
2019-04-25T02:25:19.471Z,100051.23
2019-04-25T02:30:16.109Z,100051.55
2019-04-25T02:35:10.143Z,100069.67
2019-04-25T02:40:07.885Z,100065.52
2019-04-25T02:45:10.033Z,100057.34
2019-04-25T02:50:24.704Z,100051.72
2019-04-25T02:55:30.870Z,100051.23
2019-04-25T03:00:45.933Z,100047.72
2019-04-25T03:05:25.562Z,100049.27
2019-04-25T03:10:19.584Z,100042.49
2019-04-25T03:15:14.435Z,100046.55
2019-04-25T03:20:46.467Z,100052.50
2019-04-25T03:25:40.673Z,100044.99
2019-04-25T03:30:35.486Z,100048.18
2019-04-25T03:35:29.480Z,100042.59
2019-04-25T03:40:23.628Z,100048.25
2019-04-25T03:45:18.734Z,100059.30
2019-04-25T03:50:13.991Z,100063.52
2019-04-25T03:55:08.698Z,100062.08
2019-04-25T04:00:05.944Z,100065.27
2019-04-25T04:04:58.992Z,100067.68
2019-04-25T04:09:53.253Z,100063.09
2019-04-25T04:14:48.792Z,100065.16
2019-04-25T04:20:03.924Z,100070.38
2019-04-25T04:24:59.697Z,100081.78
2019-04-25T04:29:54.250Z,100083.67
2019-04-25T04:34:48.227Z,100083.56
2019-04-25T04:39:43.629Z,100090.63
2019-04-25T04:44:39.822Z,100089.95
2019-04-25T04:49:36.830Z,100087.16
2019-04-25T04:54:32.019Z,100088.73
2019-04-25T04:59:27.511Z,100087.73
2019-04-25T05:04:26.934Z,100082.13
2019-04-25T05:09:25.625Z,100079.18
2019-04-25T05:14:19.672Z,100072.52
2019-04-25T05:19:15.466Z,100060.14
2019-04-25T05:24:10.259Z,100058.54
2019-04-25T05:29:04.056Z,100068.11
2019-04-25T05:33:57.958Z,100058.86
2019-04-25T05:38:51.907Z,100062.56
2019-04-25T05:43:45.955Z,100083.45
2019-04-25T05:48:39.898Z,100083.09
2019-04-25T05:53:33.916Z,100088.87
2019-04-25T05:58:27.986Z,100084.58
2019-04-25T06:03:24.531Z,100108.37
2019-04-25T06:08:20.173Z,100115.70
2019-04-25T06:13:40.263Z,100132.91
2019-04-25T06:18:40.702Z,100130.19
2019-04-25T06:24:10.339Z,100127.92
2019-04-25T06:29:04.735Z,100126.88
2019-04-25T06:33:59.754Z,100129.68
2019-04-25T06:38:54.873Z,100128.41
2019-04-25T06:43:51.936Z,100124.94
2019-04-25T06:48:55.859Z,100145.59
2019-04-25T06:53:50.260Z,100135.75
2019-04-25T06:58:44.758Z,100134.15
2019-04-25T07:03:38.942Z,100152.97
2019-04-25T07:08:35.191Z,100167.47
2019-04-25T07:13:28.781Z,100168.77
2019-04-25T07:18:24.826Z,100165.51
2019-04-25T07:23:18.731Z,100166.98
2019-04-25T07:28:36.948Z,100165.42
2019-04-25T07:33:43.345Z,100171.42
2019-04-25T07:38:36.795Z,100170.66
2019-04-25T07:43:31.704Z,100171.06
2019-04-25T07:48:26.863Z,100181.17
2019-04-25T07:53:20.899Z,100190.70
2019-04-25T07:58:14.796Z,100201.27
2019-04-25T08:03:08.742Z,100202.65
2019-04-25T08:08:03.493Z,100196.80
2019-04-25T08:12:57.646Z,100213.64
2019-04-25T08:17:56.169Z,100206.11
2019-04-25T08:22:56.557Z,100214.99
2019-04-25T08:27:45.980Z,100208.05
2019-04-25T08:32:41.509Z,100215.71
2019-04-25T08:37:35.617Z,100220.58
2019-04-25T08:42:31.301Z,100222.59
2019-04-25T08:47:26.263Z,100210.02
2019-04-25T08:52:20.346Z,100225.70
2019-04-25T08:57:33.879Z,100211.80
2019-04-25T09:02:54.491Z,100214.73
2019-04-25T09:07:49.011Z,100214.73
2019-04-25T09:12:44.250Z,100206.75
2019-04-25T09:17:39.403Z,100210.66
2019-04-25T09:22:35.288Z,100204.30
2019-04-25T09:27:28.730Z,100195.78
2019-04-25T09:32:23.847Z,100190.39
2019-04-25T09:37:18.072Z,100180.31
2019-04-25T09:42:14.193Z,100169.63
2019-04-25T09:47:09.158Z,100154.18
2019-04-25T09:52:28.722Z,100144.36
2019-04-25T09:57:59.995Z,100136.75
2019-04-25T10:02:55.544Z,100146.67
2019-04-25T10:07:49.928Z,100150.01
2019-04-25T10:12:44.213Z,100137.09
2019-04-25T10:17:37.767Z,100150.28
2019-04-25T10:22:31.151Z,100141.19
2019-04-25T10:27:24.701Z,100140.77
2019-04-25T10:32:19.212Z,100145.52
2019-04-25T10:37:13.796Z,100123.30
2019-04-25T10:42:07.291Z,100108.57
2019-04-25T10:47:00.710Z,100117.94
2019-04-25T10:51:54.380Z,100113.81
2019-04-25T10:56:48.380Z,100115.41
2019-04-25T11:01:43.099Z,100115.75
2019-04-25T11:06:39.089Z,100113.81
2019-04-25T11:11:34.983Z,100115.98
2019-04-25T11:16:28.409Z,100111.91
2019-04-25T11:21:21.946Z,100102.86
2019-04-25T11:26:15.445Z,100099.30
2019-04-25T11:31:14.270Z,100085.63
2019-04-25T11:36:07.726Z,100070.13
2019-04-25T11:41:07.996Z,100071.82
2019-04-25T11:46:01.443Z,100058.92
2019-04-25T11:50:55.865Z,100046.61
2019-04-25T11:55:50.221Z,100051.80
2019-04-25T12:00:46.270Z,100050.72
2019-04-25T12:05:40.517Z,100024.98
2019-04-25T12:10:38.556Z,100029.31
2019-04-25T12:15:33.381Z,100019.64
2019-04-25T12:20:27.035Z,100020.72
2019-04-25T12:25:20.479Z,100034.72
2019-04-25T12:30:15.439Z,100037.73
2019-04-25T12:35:08.883Z,100016.81
2019-04-25T12:40:05.907Z,100014.64
2019-04-25T12:45:17.603Z,100000.26
2019-04-25T12:50:11.595Z,100013.59
2019-04-25T12:55:06.143Z,100003.57
2019-04-25T12:59:59.550Z,100018.75
2019-04-25T13:04:55.203Z,100036.64
2019-04-25T13:09:52.267Z,100042.08
2019-04-25T13:14:45.562Z,100054.55
2019-04-25T13:19:38.979Z,100037.63
2019-04-25T13:24:34.155Z,100033.59
2019-04-25T13:29:53.330Z,100026.92
2019-04-25T13:34:48.776Z,100017.39
2019-04-25T13:39:44.068Z,100011.50
2019-04-25T13:44:37.833Z,100000.00
2019-04-25T13:49:31.628Z,100002.47
2019-04-25T13:54:25.193Z,100012.45
2019-04-25T13:59:18.615Z,100008.09
2019-04-25T14:04:14.218Z,100007.44
2019-04-25T14:09:13.316Z,100009.16
2019-04-25T14:14:07.059Z,99990.33
2019-04-25T14:19:24.295Z,99995.22
2019-04-25T14:24:20.494Z,99984.05
2019-04-25T14:29:14.509Z,99980.97
2019-04-25T14:34:07.918Z,99981.81
2019-04-25T14:39:01.363Z,99990.12
2019-04-25T14:43:55.163Z,99984.78
2019-04-25T14:48:50.237Z,99976.64
2019-04-25T14:53:44.146Z,99991.41
2019-04-25T14:58:39.267Z,99986.36
2019-04-25T15:03:32.817Z,99984.16
2019-04-25T15:08:26.604Z,99985.48
2019-04-25T15:13:20.414Z,99975.01
2019-04-25T15:18:13.859Z,99980.70
2019-04-25T15:23:07.273Z,99962.47
2019-04-25T15:28:01.315Z,99949.56
2019-04-25T15:32:56.565Z,99975.17
2019-04-25T15:37:55.848Z,99980.13
2019-04-25T15:42:58.410Z,99981.04
2019-04-25T15:47:52.909Z,99990.07
2019-04-25T15:52:46.356Z,99982.88
2019-04-25T15:57:40.772Z,99993.34
2019-04-25T16:02:35.099Z,100000.05
2019-04-25T16:07:29.092Z,100006.93
2019-04-25T16:12:22.724Z,100021.97
2019-04-25T16:17:16.267Z,100034.53
2019-04-25T16:22:09.694Z,100042.21
2019-04-25T16:27:04.357Z,100037.90
2019-04-25T16:31:59.579Z,100017.63
2019-04-25T16:36:52.990Z,100040.95
2019-04-25T16:41:46.743Z,100065.18
2019-04-25T16:46:41.716Z,100072.41
2019-04-25T16:51:35.868Z,100086.12
2019-04-25T16:56:29.412Z,100096.09
2019-04-25T17:01:23.491Z,100100.51
2019-04-25T17:06:16.885Z,100110.45
2019-04-25T17:11:11.311Z,100106.73
2019-04-25T17:16:26.878Z,100124.61
2019-04-25T17:21:20.423Z,100145.38
2019-04-25T17:26:13.965Z,100123.34
2019-04-25T17:31:15.919Z,100117.14
2019-04-25T17:36:19.746Z,100140.67
2019-04-25T17:41:13.210Z,100139.11
2019-04-25T17:46:10.875Z,100133.77
2019-04-25T17:51:03.697Z,100137.67
2019-04-25T17:55:57.112Z,100138.36
2019-04-25T18:00:52.115Z,100150.16
2019-04-25T18:05:46.150Z,100172.92
2019-04-25T18:10:39.604Z,100159.13
2019-04-25T18:15:52.495Z,100183.23
2019-04-25T18:20:46.643Z,100196.80
2019-04-25T18:26:04.880Z,100207.88
2019-04-25T18:30:59.116Z,100204.46
2019-04-25T18:35:54.218Z,100234.72
2019-04-25T18:41:22.037Z,100238.98
2019-04-25T18:46:31.282Z,100246.33
2019-04-25T18:51:24.717Z,100261.35
2019-04-25T18:56:49.823Z,100272.22
2019-04-25T19:02:05.628Z,100290.34
2019-04-25T19:06:59.457Z,100311.61
2019-04-25T19:11:52.880Z,100306.86
2019-04-25T19:16:46.294Z,100298.37
2019-04-25T19:21:41.551Z,100318.70
2019-04-25T19:26:35.475Z,100322.31
2019-04-25T19:31:29.617Z,100335.44
2019-04-25T19:36:23.012Z,100336.28
2019-04-25T19:41:21.789Z,100320.05
2019-04-25T19:46:15.241Z,100312.30
2019-04-25T19:51:08.643Z,100327.83
2019-04-25T19:56:02.050Z,100328.95
2019-04-25T20:00:55.862Z,100328.91
2019-04-25T20:06:15.032Z,100348.09
2019-04-25T20:11:18.226Z,100353.27
2019-04-25T20:16:12.056Z,100349.27
2019-04-25T20:21:06.542Z,100356.28
2019-04-25T20:26:00.538Z,100341.52
2019-04-25T20:30:54.638Z,100344.12
2019-04-25T20:35:48.999Z,100364.89
2019-04-25T20:40:42.493Z,100359.92
2019-04-25T20:45:35.912Z,100357.09
2019-04-25T20:50:29.309Z,100360.05
2019-04-25T20:55:23.238Z,100372.58
2019-04-25T21:00:40.053Z,100366.23
2019-04-25T21:05:33.581Z,100348.02
2019-04-25T21:10:28.775Z,100348.41
2019-04-25T21:15:30.990Z,100372.14
2019-04-25T21:20:24.860Z,100387.06
2019-04-25T21:25:18.707Z,100372.81
2019-04-25T21:30:12.242Z,100359.88
2019-04-25T21:35:05.754Z,100386.52
2019-04-25T21:40:18.642Z,100409.43
2019-04-25T21:45:12.313Z,100407.92
2019-04-25T21:50:06.537Z,100405.94
2019-04-25T21:55:00.237Z,100423.73
2019-04-25T22:00:03.058Z,100408.69
2019-04-25T22:04:50.296Z,100417.75
2019-04-25T22:09:44.644Z,100401.19
2019-04-25T22:14:38.729Z,100399.98
2019-04-25T22:19:32.817Z,100409.31
2019-04-25T22:24:26.623Z,100381.23
2019-04-25T22:29:22.598Z,100370.48
2019-04-25T22:34:24.781Z,100352.64
2019-04-25T22:39:18.887Z,100373.60
2019-04-25T22:44:14.960Z,100359.48
2019-04-25T22:49:09.164Z,100347.48
2019-04-25T22:54:03.465Z,100339.21
2019-04-25T22:58:57.469Z,100330.33
2019-04-25T23:03:53.618Z,100351.32
2019-04-25T23:08:47.790Z,100358.47
2019-04-25T23:13:41.776Z,100360.58
2019-04-25T23:18:36.078Z,100364.22
2019-04-25T23:23:32.364Z,100368.69
2019-04-25T23:28:28.921Z,100378.23
2019-04-25T23:33:22.936Z,100385.53
2019-04-25T23:38:17.381Z,100396.73
2019-04-25T23:43:11.777Z,100388.34
2019-04-25T23:48:06.093Z,100381.77
2019-04-25T23:53:01.086Z,100378.84
2019-04-25T23:57:55.302Z,100361.36
